Time;durP1;ratioP1;P1;durP2;ratioP2;P2;SDS_P1;SDS_P2;PMS_P1;PMS_P2;Temp;Humidity;BMP_temperature;BMP_pressure;BME280_temperature;BME280_humidity;BME280_pressure;Samples;Min_cycle;Max_cycle;Signal;HPM_P1;HPM_P2
2021/10/02 00:46:13;;;;;;;0.30;0.20;;;;;;;13.28;100.00;100152.97;5029206;28;20495;-56
2021/10/02 00:48:40;;;;;;;0.40;0.40;;;;;;;13.18;100.00;100149.84;5044764;28;20506;-55
2021/10/02 00:51:08;;;;;;;0.30;0.20;;;;;;;13.22;100.00;100143.44;5047315;28;20839;-56
2021/10/02 00:53:35;;;;;;;0.40;0.30;;;;;;;13.23;100.00;100138.94;5041659;28;20494;-55
2021/10/02 00:56:02;;;;;;;5.83;1.23;;;;;;;13.19;100.00;100134.69;5046216;28;20530;-56
2021/10/02 00:58:30;;;;;;;2.30;0.90;;;;;;;13.35;100.00;100143.78;5044053;28;20455;-56
2021/10/02 01:01:00;;;;;;;0.40;0.30;;;;;;;13.37;100.00;100149.91;5039965;28;20552;-55
2021/10/02 01:03:38;;;;;;;0.40;0.30;;;;;;;13.35;100.00;100141.13;5041787;28;20562;-55
2021/10/02 01:06:46;;;;;;;0.30;0.20;;;;;;;13.32;100.00;100130.56;5045829;28;20506;-56
2021/10/02 01:09:43;;;;;;;0.90;0.90;;;;;;;13.26;100.00;100139.69;5046720;28;21003;-55
2021/10/02 01:12:38;;;;;;;0.30;0.20;;;;;;;13.09;100.00;100139.50;5024502;28;20457;-53
2021/10/02 01:15:10;;;;;;;0.30;0.20;;;;;;;13.02;100.00;100143.38;5045149;28;20474;-56
2021/10/02 01:17:42;;;;;;;0.30;0.20;;;;;;;13.09;100.00;100139.50;5039227;28;20470;-55
2021/10/02 01:20:20;;;;;;;0.30;0.20;;;;;;;12.95;100.00;100131.19;5039835;28;20491;-55
2021/10/02 01:23:24;;;;;;;0.30;0.20;;;;;;;13.12;100.00;100138.50;5036605;28;20828;-54
2021/10/02 01:26:04;;;;;;;0.50;0.50;;;;;;;13.26;100.00;100144.16;5022756;28;20833;-54
2021/10/02 01:28:35;;;;;;;0.40;0.30;;;;;;;13.28;100.00;100140.50;5042593;28;20473;-53
2021/10/02 01:31:17;;;;;;;0.30;0.20;;;;;;;13.31;100.00;100147.53;5043553;28;20462;-53
2021/10/02 01:34:07;;;;;;;0.53;0.53;;;;;;;13.34;100.00;100139.38;5039657;28;20501;-54
2021/10/02 01:36:57;;;;;;;0.30;0.20;;;;;;;13.31;100.00;100136.84;5039016;28;20459;-53
2021/10/02 01:47:52;;;;;;;0.30;0.20;;;;;;;13.80;100.00;100113.34;5047433;28;20463;-53
2021/10/02 01:50:29;;;;;;;0.30;0.20;;;;;;;13.84;100.00;100123.84;5038186;28;20477;-53
2021/10/02 01:52:59;;;;;;;0.30;0.20;;;;;;;13.86;100.00;100116.63;5035881;28;20486;-53
2021/10/02 01:55:28;;;;;;;1.23;0.70;;;;;;;13.78;100.00;100115.22;5042371;28;20463;-53
2021/10/02 01:58:00;;;;;;;0.30;0.20;;;;;;;13.76;100.00;100111.75;5045425;28;21142;-53
2021/10/02 02:00:27;;;;;;;0.30;0.30;;;;;;;13.80;100.00;100114.19;5043911;28;21017;-54
2021/10/02 02:02:57;;;;;;;0.30;0.20;;;;;;;13.81;100.00;100112.41;5046102;28;20512;-53
2021/10/02 02:05:27;;;;;;;0.30;0.20;;;;;;;13.80;100.00;100110.66;5044971;28;20479;-53
2021/10/02 02:08:00;;;;;;;0.30;0.30;;;;;;;13.77;100.00;100116.16;5037932;28;20510;-53
2021/10/02 02:10:28;;;;;;;0.30;0.20;;;;;;;13.97;100.00;100110.75;5046125;28;21007;-53
2021/10/02 02:12:58;;;;;;;0.30;0.20;;;;;;;13.99;100.00;100116.06;5039873;28;20979;-53
2021/10/02 02:15:27;;;;;;;0.40;0.30;;;;;;;14.04;100.00;100114.91;5038804;28;20471;-53
2021/10/02 02:18:06;;;;;;;0.30;0.20;;;;;;;14.14;100.00;100105.53;5031830;28;20468;-52
2021/10/02 02:20:40;;;;;;;0.30;0.20;;;;;;;14.12;100.00;100103.88;5042544;28;20538;-53
2021/10/02 02:23:12;;;;;;;0.30;0.20;;;;;;;14.17;100.00;100115.22;5044019;28;20484;-53
2021/10/02 02:25:40;;;;;;;0.30;0.20;;;;;;;14.18;100.00;100116.94;5036175;28;20517;-53
2021/10/02 02:28:09;;;;;;;0.30;0.20;;;;;;;14.15;100.00;100115.28;5045029;28;20817;-53
2021/10/02 02:30:36;;;;;;;0.67;0.67;;;;;;;14.23;100.00;100109.56;5038674;28;20447;-53
2021/10/02 02:33:04;;;;;;;0.30;0.20;;;;;;;14.26;100.00;100108.59;5036982;28;20449;-54
2021/10/02 02:35:31;;;;;;;0.30;0.20;;;;;;;14.27;100.00;100104.97;5026427;28;20486;-53
2021/10/02 02:37:59;;;;;;;0.43;0.43;;;;;;;14.22;100.00;100107.84;5038174;28;20454;-54
2021/10/02 02:40:26;;;;;;;0.30;0.20;;;;;;;14.28;100.00;100104.91;5039371;28;20491;-53
2021/10/02 02:42:53;;;;;;;0.80;0.77;;;;;;;14.20;100.00;100099.03;5038505;28;20941;-53
2021/10/02 02:45:21;;;;;;;0.30;0.20;;;;;;;14.19;100.00;100102.63;5044065;28;20857;-53
2021/10/02 02:48:05;;;;;;;0.30;0.20;;;;;;;14.22;100.00;100102.50;5044602;28;20459;-54
2021/10/02 02:50:38;;;;;;;0.30;0.20;;;;;;;14.19;100.00;100107.97;5042386;28;20442;-53
2021/10/02 02:53:45;;;;;;;0.40;0.40;;;;;;;14.22;100.00;100108.69;5043435;28;20526;-53
2021/10/02 02:56:25;;;;;;;0.30;0.20;;;;;;;14.20;100.00;100110.59;5049584;28;20482;-53
2021/10/02 02:58:57;;;;;;;0.30;0.20;;;;;;;14.16;100.00;100094.78;5043913;28;20482;-53
2021/10/02 03:01:25;;;;;;;0.30;0.20;;;;;;;14.26;100.00;100103.25;5048616;28;21032;-54
2021/10/02 03:03:55;;;;;;;0.50;0.50;;;;;;;14.29;100.00;100098.59;5030734;28;21020;-54
2021/10/02 03:06:23;;;;;;;0.30;0.20;;;;;;;14.33;100.00;100108.22;5022190;28;20877;-54
2021/10/02 03:08:55;;;;;;;0.30;0.20;;;;;;;14.29;100.00;100098.59;5049017;28;20450;-54
2021/10/02 03:11:24;;;;;;;0.30;0.20;;;;;;;14.42;100.00;100099.75;5043606;28;20467;-53
2021/10/02 03:13:58;;;;;;;0.37;0.27;;;;;;;14.34;100.00;100099.25;5042233;28;20452;-55
2021/10/02 03:16:26;;;;;;;5.43;0.57;;;;;;;14.30;100.00;100108.34;5047257;28;20463;-53
2021/10/02 03:18:58;;;;;;;0.30;0.20;;;;;;;14.28;100.00;100112.03;5049016;28;20539;-54
2021/10/02 03:21:26;;;;;;;0.40;0.40;;;;;;;14.39;100.00;100104.38;5046081;28;20502;-54
2021/10/02 03:23:53;;;;;;;0.30;0.20;;;;;;;14.36;100.00;100097.38;5041953;28;20803;-54
2021/10/02 03:26:20;;;;;;;0.40;0.30;;;;;;;14.33;100.00;100102.84;5044266;28;20513;-54
2021/10/02 03:28:49;;;;;;;0.30;0.20;;;;;;;14.35;100.00;100092.09;5048898;28;20501;-54
2021/10/02 03:31:18;;;;;;;0.30;0.20;;;;;;;14.37;100.00;100092.88;5045834;28;20457;-53
2021/10/02 03:33:47;;;;;;;0.37;0.27;;;;;;;14.48;100.00;100098.63;5041848;28;20451;-54
2021/10/02 03:36:14;;;;;;;0.30;0.20;;;;;;;14.32;100.00;100109.16;5042392;28;20459;-54
2021/10/02 03:38:42;;;;;;;0.30;0.20;;;;;;;14.36;100.00;100113.41;5047149;28;20784;-54
2021/10/02 03:41:10;;;;;;;0.30;0.20;;;;;;;14.38;100.00;100110.66;5041612;28;20495;-54
2021/10/02 03:43:38;;;;;;;0.30;0.20;;;;;;;14.42;100.00;100118.47;5047324;28;20451;-54
2021/10/02 03:46:05;;;;;;;0.30;0.20;;;;;;;14.43;100.00;100112.19;5035897;28;20477;-53
2021/10/02 03:48:33;;;;;;;0.30;0.20;;;;;;;14.41;100.00;100110.53;5041545;28;20824;-55
2021/10/02 03:51:00;;;;;;;0.30;0.20;;;;;;;14.40;100.00;100108.81;5041834;28;20521;-54
2021/10/02 03:53:29;;;;;;;2.10;1.20;;;;;;;14.38;100.00;100098.16;5048667;28;20454;-53
2021/10/02 03:55:58;;;;;;;0.30;0.20;;;;;;;14.41;100.00;100098.03;5041998;28;20522;-55
2021/10/02 03:58:28;;;;;;;0.30;0.20;;;;;;;14.39;100.00;100107.94;5029458;28;20470;-53
2021/10/02 04:00:55;;;;;;;0.30;0.20;;;;;;;14.33;100.00;100100.19;5041491;28;20491;-54
2021/10/02 04:03:22;;;;;;;0.30;0.30;;;;;;;14.37;100.00;100099.09;5046714;28;20948;-53
2021/10/02 04:05:49;;;;;;;0.30;0.20;;;;;;;14.44;100.00;100099.72;5045114;28;20838;-53
2021/10/02 04:08:16;;;;;;;0.30;0.20;;;;;;;14.40;100.00;100098.09;5046736;28;20487;-53
2021/10/02 04:10:43;;;;;;;0.30;0.20;;;;;;;14.34;100.00;100093.91;5037176;28;20446;-53
2021/10/02 04:13:10;;;;;;;0.30;0.20;;;;;;;14.34;100.00;100088.53;5045344;28;20945;-54
2021/10/02 04:15:37;;;;;;;0.30;0.20;;;;;;;14.31;100.00;100093.19;5046659;28;20490;-55
2021/10/02 04:18:04;;;;;;;67.37;2.67;;;;;;;14.31;100.00;100079.81;5034917;28;20454;-53
2021/10/02 04:20:31;;;;;;;0.30;0.20;;;;;;;14.26;100.00;100081.84;5041683;28;20518;-54
2021/10/02 04:22:58;;;;;;;0.30;0.20;;;;;;;14.26;100.00;100072.03;5044419;28;20483;-53
2021/10/02 04:25:25;;;;;;;0.30;0.30;;;;;;;14.24;100.00;100074.75;5027772;28;20470;-54
2021/10/02 04:27:52;;;;;;;0.40;0.30;;;;;;;14.23;100.00;100074.81;5035137;28;20450;-53
2021/10/02 04:30:19;;;;;;;0.30;0.20;;;;;;;14.23;100.00;100072.13;5040502;28;20449;-54
2021/10/02 04:32:46;;;;;;;0.30;0.20;;;;;;;14.36;100.00;100062.59;5045199;28;20510;-54
2021/10/02 04:35:13;;;;;;;0.47;0.47;;;;;;;14.33;100.00;100056.53;5036293;28;20510;-54
2021/10/02 04:37:40;;;;;;;0.30;0.20;;;;;;;14.37;100.00;100058.97;5040384;28;20877;-54
2021/10/02 04:40:07;;;;;;;0.30;0.20;;;;;;;14.38;100.00;100065.19;5038003;28;20514;-53
2021/10/02 04:42:34;;;;;;;0.30;0.20;;;;;;;14.36;100.00;100056.38;5045568;28;20481;-53
2021/10/02 04:45:01;;;;;;;0.30;0.20;;;;;;;14.28;100.00;100051.41;5030085;28;20513;-53
2021/10/02 04:47:28;;;;;;;0.30;0.20;;;;;;;14.27;100.00;100052.34;5046018;28;20541;-54
2021/10/02 04:49:55;;;;;;;0.30;0.20;;;;;;;14.16;100.00;100055.53;5040519;28;20470;-53
2021/10/02 04:52:22;;;;;;;0.30;0.20;;;;;;;14.19;100.00;100062.53;5041746;28;20452;-53
2021/10/02 04:54:49;;;;;;;0.30;0.20;;;;;;;14.29;100.00;100061.16;5047232;28;21004;-53
2021/10/02 04:57:15;;;;;;;0.30;0.20;;;;;;;14.18;100.00;100068.81;5035523;28;20963;-53
2021/10/02 04:59:42;;;;;;;0.30;0.20;;;;;;;14.19;100.00;100073.22;5036530;28;20451;-53
2021/10/02 05:02:09;;;;;;;0.40;0.30;;;;;;;14.15;100.00;100080.53;5045954;28;20868;-53
2021/10/02 05:04:36;;;;;;;0.30;0.20;;;;;;;14.27;100.00;100089.78;5038759;28;20582;-55
2021/10/02 05:07:03;;;;;;;0.30;0.20;;;;;;;14.27;100.00;100079.09;5027096;28;20492;-53
2021/10/02 05:09:30;;;;;;;0.30;0.20;;;;;;;14.26;100.00;100074.69;5028942;28;20483;-54
2021/10/02 05:11:57;;;;;;;0.30;0.20;;;;;;;14.35;100.00;100070.69;5038702;28;20942;-53
2021/10/02 05:14:25;;;;;;;0.30;0.20;;;;;;;14.57;100.00;100062.56;5046085;28;21008;-53
2021/10/02 05:16:52;;;;;;;0.30;0.20;;;;;;;14.48;100.00;100055.84;5029181;28;20876;-54
2021/10/02 05:19:19;;;;;;;0.30;0.20;;;;;;;14.54;100.00;100050.19;5039523;28;20462;-54
2021/10/02 05:21:46;;;;;;;0.30;0.20;;;;;;;14.56;100.00;100066.16;5042930;28;20542;-53
2021/10/02 05:24:13;;;;;;;0.30;0.20;;;;;;;14.48;100.00;100071.88;5040031;28;20521;-54
2021/10/02 05:26:40;;;;;;;0.30;0.20;;;;;;;14.57;100.00;100082.16;5033992;28;20487;-53
2021/10/02 05:29:07;;;;;;;0.30;0.20;;;;;;;14.55;100.00;100076.00;5036210;28;20504;-54
2021/10/02 05:31:34;;;;;;;0.30;0.20;;;;;;;14.47;100.00;100071.00;5031812;28;20448;-53
2021/10/02 05:34:01;;;;;;;0.30;0.20;;;;;;;14.52;100.00;100077.00;5024993;28;20456;-54
2021/10/02 05:36:28;;;;;;;0.30;0.20;;;;;;;14.42;100.00;100073.03;5046440;28;20447;-55
2021/10/02 05:38:55;;;;;;;0.30;0.20;;;;;;;14.48;100.00;100072.75;5030228;28;20457;-53
2021/10/02 05:41:22;;;;;;;0.30;0.20;;;;;;;14.38;100.00;100075.88;5030333;28;20491;-54
2021/10/02 05:43:49;;;;;;;0.80;0.80;;;;;;;14.45;100.00;100072.91;5044375;28;20451;-53
2021/10/02 05:46:16;;;;;;;0.40;0.40;;;;;;;14.47;100.00;100068.34;5030499;28;20503;-53
2021/10/02 05:48:43;;;;;;;0.30;0.20;;;;;;;14.40;100.00;100074.03;5035073;28;20500;-53
2021/10/02 05:51:11;;;;;;;0.30;0.20;;;;;;;14.38;100.00;100070.53;5038552;28;20509;-53
2021/10/02 05:53:38;;;;;;;0.30;0.20;;;;;;;14.43;100.00;100085.44;5043523;28;20538;-53
2021/10/02 05:56:05;;;;;;;0.30;0.30;;;;;;;14.56;100.00;100080.41;5043204;28;20482;-53
2021/10/02 05:58:32;;;;;;;0.30;0.20;;;;;;;14.52;100.00;100076.13;5037712;28;20498;-53
2021/10/02 06:00:58;;;;;;;0.30;0.20;;;;;;;14.58;100.00;100078.53;5040790;28;20845;-53
2021/10/02 06:03:26;;;;;;;0.30;0.20;;;;;;;14.66;100.00;100078.13;5023367;28;20460;-53
2021/10/02 06:05:53;;;;;;;0.30;0.20;;;;;;;14.64;100.00;100072.88;5033616;28;20907;-53
2021/10/02 06:08:19;;;;;;;0.30;0.20;;;;;;;14.64;100.00;100077.34;5032358;28;20452;-53
2021/10/02 06:10:46;;;;;;;0.30;0.20;;;;;;;14.57;100.00;100079.47;5034082;28;20497;-53
2021/10/02 06:13:13;;;;;;;0.30;0.20;;;;;;;14.64;100.00;100090.72;5036494;28;20502;-53
2021/10/02 06:15:40;;;;;;;0.30;0.20;;;;;;;14.57;100.00;100081.28;5023210;28;20466;-53
2021/10/02 06:18:07;;;;;;;0.30;0.20;;;;;;;14.63;100.00;100092.53;5023446;28;20456;-53
2021/10/02 06:20:34;;;;;;;0.40;0.30;;;;;;;14.78;100.00;100089.09;5040837;28;20488;-53
2021/10/02 06:23:03;;;;;;;0.40;0.30;;;;;;;14.68;100.00;100089.66;5033672;28;20808;-53
2021/10/02 06:25:32;;;;;;;0.30;0.20;;;;;;;14.72;100.00;100084.06;5038846;28;20517;-53
2021/10/02 06:27:59;;;;;;;0.30;0.20;;;;;;;14.68;100.00;100079.81;5048279;28;20486;-52
2021/10/02 06:30:26;;;;;;;0.40;0.30;;;;;;;14.71;100.00;100085.00;5037730;28;20475;-53
2021/10/02 06:32:53;;;;;;;0.30;0.20;;;;;;;14.68;100.00;100078.97;5018005;28;20482;-53
2021/10/02 06:35:20;;;;;;;0.30;0.20;;;;;;;14.80;100.00;100081.91;5045679;28;20525;-52
2021/10/02 06:37:47;;;;;;;2.00;1.90;;;;;;;14.76;100.00;100091.00;5039920;28;20459;-53
2021/10/02 06:40:14;;;;;;;0.30;0.20;;;;;;;14.76;100.00;100085.66;5045361;28;20455;-53
2021/10/02 06:42:41;;;;;;;0.40;0.30;;;;;;;14.68;100.00;100081.63;5044363;28;20955;-53
2021/10/02 06:45:09;;;;;;;0.30;0.20;;;;;;;14.84;100.00;100076.38;5038279;28;20528;-53
2021/10/02 06:47:36;;;;;;;0.40;0.40;;;;;;;14.78;100.00;100089.09;5039751;28;20452;-53
2021/10/02 06:50:04;;;;;;;0.40;0.40;;;;;;;14.78;100.00;100086.44;5045266;28;20491;-52
2021/10/02 06:52:31;;;;;;;0.30;0.20;;;;;;;14.83;100.00;100091.59;5043756;28;20481;-52
2021/10/02 06:54:58;;;;;;;0.30;0.20;;;;;;;14.91;100.00;100083.16;5037040;28;20498;-52
2021/10/02 06:57:25;;;;;;;0.30;0.20;;;;;;;14.95;100.00;100082.09;5038749;28;20459;-53
2021/10/02 06:59:53;;;;;;;0.30;0.20;;;;;;;14.86;100.00;100086.06;5044191;28;20494;-53
2021/10/02 07:02:20;;;;;;;0.30;0.20;;;;;;;14.95;100.00;100093.66;5044993;28;20490;-53
2021/10/02 07:04:49;;;;;;;0.30;0.20;;;;;;;15.09;100.00;100079.56;5039168;28;20827;-53
2021/10/02 07:07:16;;;;;;;0.30;0.20;;;;;;;15.21;100.00;100078.94;5038472;28;20448;-53
2021/10/02 07:09:44;;;;;;;0.30;0.20;;;;;;;15.13;100.00;100072.25;5044098;28;20486;-53
2021/10/02 07:12:11;;;;;;;0.30;0.20;;;;;;;15.24;100.00;100067.22;5045535;28;20504;-54
2021/10/02 07:14:39;;;;;;;0.30;0.30;;;;;;;15.28;100.00;100069.66;5040247;28;20900;-55
2021/10/02 07:17:08;;;;;;;0.40;0.30;;;;;;;15.36;100.00;100077.31;5038291;28;20550;-53
2021/10/02 07:19:35;;;;;;;0.30;0.20;;;;;;;15.40;100.00;100081.53;5043645;28;20505;-53
2021/10/02 07:22:02;;;;;;;0.30;0.20;;;;;;;15.39;100.00;100074.47;5045437;28;20838;-53
2021/10/02 07:24:29;;;;;;;0.40;0.30;;;;;;;15.40;100.00;100079.72;5040508;28;20498;-54
2021/10/02 07:26:55;;;;;;;0.30;0.20;;;;;;;15.44;100.00;100074.22;5038699;28;20501;-53
2021/10/02 07:29:23;;;;;;;0.30;0.20;;;;;;;15.57;100.00;100073.50;5042945;28;20451;-53
2021/10/02 07:31:50;;;;;;;0.30;0.20;;;;;;;15.59;100.00;100079.66;5044770;28;20974;-53
2021/10/02 07:34:17;;;;;;;0.30;0.20;;;;;;;15.64;100.00;100066.03;5040827;28;20585;-53
2021/10/02 07:36:44;;;;;;;0.30;0.20;;;;;;;15.80;99.39;100050.88;5038015;28;20493;-52
2021/10/02 07:39:11;;;;;;;0.30;0.20;;;;;;;15.91;96.50;100047.63;5041785;28;20505;-53
2021/10/02 07:41:41;;;;;;;0.50;0.50;;;;;;;16.03;96.02;100044.22;5044435;28;20898;-54
2021/10/02 07:44:11;;;;;;;0.30;0.20;;;;;;;16.21;95.66;100045.91;5035812;28;20530;-53
2021/10/02 07:46:47;;;;;;;0.37;0.30;;;;;;;16.33;94.19;100047.06;5045660;28;20455;-56
2021/10/02 07:49:17;;;;;;;0.30;0.20;;;;;;;16.49;92.31;100039.00;5034401;28;20876;-54
2021/10/02 07:51:45;;;;;;;0.30;0.20;;;;;;;16.67;92.28;100045.13;5050519;28;20455;-54
2021/10/02 07:54:13;;;;;;;0.30;0.20;;;;;;;16.81;90.50;100062.19;5024106;28;20538;-54
2021/10/02 07:56:43;;;;;;;0.30;0.20;;;;;;;16.94;90.47;100066.84;5028009;28;20454;-53
2021/10/02 07:59:14;;;;;;;3.20;0.50;;;;;;;16.75;90.43;100064.38;5041180;28;20495;-54
2021/10/02 08:01:43;;;;;;;0.30;0.20;;;;;;;16.99;90.60;100059.38;5047066;28;20491;-54
2021/10/02 08:04:11;;;;;;;0.40;0.30;;;;;;;16.82;90.40;100060.38;5028550;28;20474;-54
2021/10/02 08:06:43;;;;;;;0.30;0.20;;;;;;;16.76;89.51;100050.00;5043450;28;20940;-53
2021/10/02 08:09:11;;;;;;;0.30;0.20;;;;;;;16.80;89.97;100055.09;5034244;28;20538;-54
2021/10/02 08:11:40;;;;;;;0.40;0.30;;;;;;;16.84;89.89;100051.28;5025013;28;20477;-54
2021/10/02 08:14:08;;;;;;;0.30;0.20;;;;;;;17.07;89.00;100052.63;5035360;28;20550;-53
2021/10/02 08:16:37;;;;;;;0.40;0.20;;;;;;;17.19;88.25;100048.34;5027084;28;20470;-54
2021/10/02 08:19:09;;;;;;;0.37;0.30;;;;;;;17.48;87.97;100042.06;5047795;28;20475;-54
2021/10/02 08:21:41;;;;;;;0.40;0.20;;;;;;;17.27;88.36;100056.81;5046035;28;21078;-54
2021/10/02 08:24:09;;;;;;;0.40;0.20;;;;;;;17.47;88.29;100056.47;5040656;28;20536;-54
2021/10/02 08:26:38;;;;;;;0.40;0.20;;;;;;;17.57;88.47;100063.97;5042066;28;20829;-54
2021/10/02 08:29:05;;;;;;;0.40;0.20;;;;;;;17.76;87.18;100061.91;5048108;28;20933;-54
2021/10/02 08:31:33;;;;;;;0.40;0.20;;;;;;;17.36;86.65;100060.75;5047515;28;20450;-54
2021/10/02 08:34:20;;;;;;;0.40;0.30;;;;;;;17.27;87.27;100058.59;5034789;28;20510;-53
2021/10/02 08:36:47;;;;;;;0.40;0.20;;;;;;;17.18;87.74;100049.28;5040786;28;20451;-53
2021/10/02 08:39:16;;;;;;;0.40;0.20;;;;;;;17.28;88.29;100033.50;5044745;28;20499;-54
2021/10/02 08:41:44;;;;;;;0.30;0.20;;;;;;;17.34;88.49;100035.81;5047693;28;20491;-54
2021/10/02 08:44:27;;;;;;;0.40;0.20;;;;;;;17.23;87.85;100030.22;5045008;28;20544;-54
2021/10/02 08:46:54;;;;;;;0.40;0.30;;;;;;;17.51;88.22;100029.41;5039230;28;20451;-53
2021/10/02 08:49:34;;;;;;;0.40;0.20;;;;;;;17.40;88.92;100024.66;5041575;28;20948;-56
2021/10/02 08:52:04;;;;;;;0.40;0.20;;;;;;;17.60;88.17;100015.41;5041062;28;20497;-57
2021/10/02 08:54:39;;;;;;;0.30;0.20;;;;;;;17.81;86.84;100011.38;5040381;28;20479;-57
2021/10/02 08:57:16;;;;;;;0.33;0.20;;;;;;;18.03;86.65;100008.22;5043744;28;20476;-57
2021/10/02 08:59:43;;;;;;;0.40;0.20;;;;;;;18.12;84.88;100017.53;5047214;28;20452;-56
2021/10/02 09:02:11;;;;;;;0.40;0.40;;;;;;;18.48;85.25;100000.81;5045256;28;20486;-56
2021/10/02 09:04:40;;;;;;;0.40;0.20;;;;;;;18.73;84.82;99986.63;5040251;28;20475;-56
2021/10/02 09:07:08;;;;;;;0.40;0.20;;;;;;;18.89;82.57;99985.47;5042329;28;20476;-56
2021/10/02 09:09:35;;;;;;;0.90;0.90;;;;;;;19.19;82.49;99984.38;5045563;28;20594;-57
2021/10/02 09:12:04;;;;;;;1.23;0.57;;;;;;;18.77;81.60;99977.34;5047276;28;20497;-56
2021/10/02 09:14:33;;;;;;;0.40;0.20;;;;;;;18.79;81.61;99975.44;5039770;28;20477;-56
2021/10/02 09:17:00;;;;;;;0.40;0.30;;;;;;;19.00;80.97;99973.97;5040321;28;20807;-56
2021/10/02 09:19:27;;;;;;;0.40;0.20;;;;;;;19.32;79.76;99984.34;5045780;28;20448;-56
2021/10/02 09:22:01;;;;;;;0.40;0.20;;;;;;;19.13;79.78;99984.78;5046933;28;20486;-56
2021/10/02 09:24:30;;;;;;;0.40;0.20;;;;;;;19.16;79.93;99976.47;5034888;28;20496;-56
2021/10/02 09:26:58;;;;;;;0.40;0.20;;;;;;;19.19;79.73;99987.06;5042531;28;20469;-56
2021/10/02 09:29:43;;;;;;;0.40;0.20;;;;;;;19.32;79.30;99981.66;5042615;28;20446;-56
2021/10/02 09:32:15;;;;;;;0.40;0.40;;;;;;;18.99;80.91;99980.31;5039507;28;20447;-56
2021/10/02 09:34:52;;;;;;;0.40;0.20;;;;;;;18.84;80.83;99978.69;5035194;28;21008;-56
2021/10/02 09:37:31;;;;;;;0.50;0.30;;;;;;;18.83;81.19;99971.56;5027713;28;20946;-56
2021/10/02 09:39:59;;;;;;;0.40;0.20;;;;;;;18.78;82.22;99969.19;5039599;28;20456;-56
2021/10/02 09:42:31;;;;;;;0.40;0.20;;;;;;;18.90;82.29;99965.66;5043653;28;20533;-57
2021/10/02 09:45:07;;;;;;;0.40;0.20;;;;;;;18.75;83.40;99955.06;5046123;28;20464;-56
2021/10/02 09:47:35;;;;;;;0.40;0.20;;;;;;;18.78;82.71;99954.88;5044803;28;20447;-57
2021/10/02 09:50:11;;;;;;;0.40;0.20;;;;;;;18.89;83.36;99952.28;5039378;28;20454;-57
2021/10/02 09:52:41;;;;;;;0.40;0.20;;;;;;;18.79;82.87;99954.75;5039577;28;20455;-57
2021/10/02 09:55:28;;;;;;;0.40;0.20;;;;;;;18.75;82.95;99957.75;5039984;28;20471;-57
2021/10/02 09:57:58;;;;;;;0.40;0.20;;;;;;;18.80;82.95;99955.63;5039153;28;20500;-57
2021/10/02 10:00:29;;;;;;;0.40;0.20;;;;;;;18.76;83.37;99959.47;5042173;28;20486;-57
2021/10/02 10:02:58;;;;;;;0.40;0.20;;;;;;;18.79;83.15;99948.53;5045784;28;20583;-57
2021/10/02 10:05:37;;;;;;;0.40;0.20;;;;;;;19.00;82.33;99949.72;5044461;28;20506;-57
2021/10/02 10:08:06;;;;;;;0.40;0.20;;;;;;;19.26;82.23;99934.44;5045613;28;20479;-57
2021/10/02 10:10:38;;;;;;;0.40;0.23;;;;;;;19.43;81.91;99930.56;5034097;28;20999;-57
2021/10/02 10:13:19;;;;;;;3.70;1.13;;;;;;;19.48;81.03;99928.41;5043520;28;20510;-57
2021/10/02 10:15:53;;;;;;;0.50;0.50;;;;;;;19.81;80.31;99926.00;5045688;28;20474;-56
2021/10/02 10:18:36;;;;;;;0.40;0.30;;;;;;;19.63;79.06;99927.34;5044466;28;20496;-57
2021/10/02 10:21:07;;;;;;;0.40;0.20;;;;;;;19.96;79.18;99917.75;5028518;28;20446;-57
2021/10/02 10:23:42;;;;;;;0.40;0.20;;;;;;;20.06;78.66;99910.72;5039223;28;20488;-57
2021/10/02 10:26:10;;;;;;;0.40;0.20;;;;;;;20.10;79.47;99901.41;5042815;28;20541;-57
2021/10/02 10:28:40;;;;;;;0.40;0.20;;;;;;;20.06;77.30;99894.53;5045774;28;20463;-56
2021/10/02 10:31:17;;;;;;;0.40;0.20;;;;;;;20.01;77.41;99894.00;5043134;28;20512;-57
2021/10/02 10:33:52;;;;;;;0.40;0.20;;;;;;;20.07;78.96;99890.84;5039195;28;20442;-57
2021/10/02 10:36:22;;;;;;;0.40;0.30;;;;;;;20.16;77.98;99890.19;5039371;28;20459;-57
2021/10/02 10:38:50;;;;;;;0.40;0.20;;;;;;;20.07;77.57;99885.47;5039202;28;20504;-57
2021/10/02 10:41:20;;;;;;;0.40;0.20;;;;;;;20.11;77.47;99874.31;5038557;28;20454;-57
2021/10/02 10:43:48;;;;;;;0.40;0.20;;;;;;;19.91;78.79;99876.78;5044402;28;20425;-57
2021/10/02 10:46:19;;;;;;;0.40;0.30;;;;;;;20.19;78.83;99876.44;5045289;28;20821;-57
2021/10/02 10:48:46;;;;;;;0.40;0.20;;;;;;;20.20;77.29;99875.47;5041172;28;20450;-57
2021/10/02 10:51:15;;;;;;;0.40;0.30;;;;;;;20.19;77.89;99871.06;5038703;28;20475;-57
2021/10/02 10:53:49;;;;;;;0.40;0.20;;;;;;;20.22;77.47;99857.31;5043162;28;20458;-57
2021/10/02 10:56:35;;;;;;;0.40;0.30;;;;;;;20.09;77.60;99864.63;5045809;28;20474;-57
2021/10/02 10:59:02;;;;;;;0.40;0.20;;;;;;;20.08;77.41;99862.91;5045172;28;20442;-57
2021/10/02 11:01:40;;;;;;;0.40;0.20;;;;;;;20.00;78.08;99854.50;5038366;28;20577;-57
2021/10/02 11:04:31;;;;;;;0.40;0.20;;;;;;;19.81;78.16;99863.97;5038288;28;20547;-57
2021/10/02 11:06:59;;;;;;;0.40;0.20;;;;;;;19.94;79.10;99861.22;5040495;28;20542;-57
2021/10/02 11:09:44;;;;;;;0.40;0.30;;;;;;;19.90;78.61;99862.44;5045136;28;20821;-57
2021/10/02 11:12:15;;;;;;;0.40;0.20;;;;;;;19.93;78.68;99858.63;5044080;28;20443;-57
2021/10/02 11:14:51;;;;;;;0.40;0.30;;;;;;;20.06;78.19;99837.88;5040386;28;20498;-57
2021/10/02 11:17:30;;;;;;;0.40;0.20;;;;;;;20.12;77.42;99824.75;5041490;28;20799;-57
2021/10/02 11:19:58;;;;;;;0.40;0.20;;;;;;;20.13;77.27;99812.97;5039436;28;20504;-57
2021/10/02 11:23:13;;;;;;;0.60;0.40;;;;;;;20.04;77.60;99820.94;5031197;28;20959;-57
2021/10/02 11:25:42;;;;;;;1.07;1.07;;;;;;;20.11;77.40;99808.69;5037959;28;20474;-56
2021/10/02 11:28:25;;;;;;;0.40;0.20;;;;;;;20.11;77.79;99804.13;5029775;28;20463;-56
2021/10/02 11:30:54;;;;;;;0.40;0.20;;;;;;;20.22;76.67;99814.13;5032410;28;20852;-56
2021/10/02 11:33:46;;;;;;;0.40;0.20;;;;;;;19.73;77.51;99803.44;5041698;28;20418;-56
2021/10/02 11:36:29;;;;;;;0.40;0.20;;;;;;;20.24;77.22;99803.22;5043911;28;20483;-56
2021/10/02 11:39:08;;;;;;;0.40;0.20;;;;;;;20.18;76.28;99791.06;5030111;28;20519;-56
2021/10/02 11:41:47;;;;;;;0.40;0.20;;;;;;;20.17;76.44;99789.34;5041881;28;20447;-56
2021/10/02 11:44:33;;;;;;;0.40;0.27;;;;;;;20.44;76.44;99785.53;5048847;28;20463;-56
2021/10/02 11:47:36;;;;;;;0.50;0.30;;;;;;;20.70;75.83;99777.13;5042137;28;20588;-56
2021/10/02 11:50:09;;;;;;;0.40;0.20;;;;;;;20.88;74.54;99792.84;5041746;28;20474;-56
2021/10/02 11:52:40;;;;;;;0.40;0.20;;;;;;;20.98;72.50;99786.59;5042421;28;20478;-56
2021/10/02 11:55:32;;;;;;;0.40;0.20;;;;;;;21.16;71.30;99775.28;5048184;28;20477;-56
2021/10/02 11:58:11;;;;;;;3.23;1.30;;;;;;;21.04;71.55;99770.88;5048414;28;20458;-56
2021/10/02 12:00:45;;;;;;;0.40;0.20;;;;;;;20.90;70.44;99762.00;5047477;28;20925;-56
2021/10/02 12:03:26;;;;;;;0.40;0.30;;;;;;;21.01;70.12;99750.34;5022989;28;20488;-56
2021/10/02 12:05:56;;;;;;;0.40;0.20;;;;;;;20.82;70.31;99753.66;5043911;28;20527;-56
2021/10/02 12:08:23;;;;;;;0.40;0.20;;;;;;;21.17;69.85;99749.97;5043356;28;20453;-56
2021/10/02 12:10:51;;;;;;;0.40;0.20;;;;;;;21.31;69.84;99751.59;5041391;28;20427;-56
2021/10/02 12:13:21;;;;;;;0.40;0.20;;;;;;;21.23;69.06;99742.19;5044395;28;20440;-56
2021/10/02 12:15:48;;;;;;;0.40;0.20;;;;;;;21.45;69.00;99738.66;5047911;28;20468;-56
2021/10/02 12:18:15;;;;;;;0.40;0.20;;;;;;;21.64;69.03;99729.84;5045974;28;20832;-56
2021/10/02 12:20:43;;;;;;;0.90;0.80;;;;;;;21.90;68.44;99733.06;5041269;28;20863;-56
2021/10/02 12:23:12;;;;;;;0.40;0.30;;;;;;;21.56;68.33;99722.41;5041816;28;20479;-57
2021/10/02 12:25:42;;;;;;;0.40;0.20;;;;;;;21.55;68.39;99717.97;5047654;28;20442;-56
2021/10/02 12:28:21;;;;;;;0.40;0.20;;;;;;;21.46;67.78;99713.31;5046981;28;20486;-56
2021/10/02 12:30:52;;;;;;;0.40;0.30;;;;;;;21.49;69.17;99710.34;5046875;28;20444;-56
2021/10/02 12:33:22;;;;;;;0.40;0.20;;;;;;;21.70;68.31;99701.44;5043008;28;20444;-57